Time;durP1;ratioP1;P1;durP2;ratioP2;P2;SDS_P1;SDS_P2;PMS_P1;PMS_P2;Temp;Humidity;BMP_temperature;BMP_pressure;BME280_temperature;BME280_humidity;BME280_pressure;Samples;Min_cycle;Max_cycle;Signal;HPM_P1;HPM_P2
2021/10/30 00:02:22;;;;;;;22.67;15.38;;;;;;;;;;4995074;28;20054;-81
2021/10/30 00:04:48;;;;;;;22.25;14.32;;;;;;;;;;4998318;28;20661;-79
2021/10/30 00:07:15;;;;;;;28.00;16.17;;;;;;;;;;5014455;28;20034;-82
2021/10/30 00:09:42;;;;;;;27.38;16.42;;;;;;;;;;5013771;28;20029;-78
2021/10/30 00:12:09;;;;;;;29.90;17.38;;;;;;;;;;5013497;28;20547;-82
2021/10/30 00:14:35;;;;;;;27.15;17.60;;;;;;;;;;5014143;28;20030;-82
2021/10/30 00:17:01;;;;;;;28.30;18.45;;;;;;;;;;5014928;28;20263;-82
2021/10/30 00:19:27;;;;;;;32.33;19.23;;;;;;;;;;5014046;28;20116;-82
2021/10/30 00:21:53;;;;;;;29.75;17.58;;;;;;;;;;5013381;28;20038;-81
2021/10/30 00:24:19;;;;;;;30.67;16.95;;;;;;;;;;5013372;28;20116;-80
2021/10/30 00:26:45;;;;;;;27.40;17.83;;;;;;;;;;5014682;28;20112;-80
2021/10/30 00:29:11;;;;;;;28.80;16.30;;;;;;;;;;4997191;28;20072;-78
2021/10/30 00:31:37;;;;;;;24.95;16.55;;;;;;;;;;4997749;28;20118;-79
2021/10/30 00:34:03;;;;;;;23.13;16.13;;;;;;;;;;4994160;28;20030;-79
2021/10/30 00:36:29;;;;;;;23.95;15.10;;;;;;;;;;5011178;28;20030;-79
2021/10/30 00:38:56;;;;;;;21.00;14.68;;;;;;;;;;5014269;28;20441;-80
2021/10/30 00:41:22;;;;;;;28.50;16.55;;;;;;;;;;5013273;28;20022;-79
2021/10/30 00:43:48;;;;;;;21.65;14.65;;;;;;;;;;5013437;28;20175;-80
2021/10/30 00:46:15;;;;;;;21.85;14.48;;;;;;;;;;5014259;28;20694;-80
2021/10/30 00:48:41;;;;;;;21.98;13.90;;;;;;;;;;5014257;28;20446;-79
2021/10/30 00:51:07;;;;;;;19.30;13.98;;;;;;;;;;5014362;28;20707;-80
2021/10/30 00:53:35;;;;;;;20.88;13.63;;;;;;;;;;5014812;28;20471;-80
2021/10/30 00:56:02;;;;;;;18.80;12.65;;;;;;;;;;5015508;28;20038;-79
2021/10/30 00:58:39;;;;;;;18.67;12.13;;;;;;;;;;5015774;28;20128;-80
2021/10/30 01:01:05;;;;;;;17.35;12.02;;;;;;;;;;5011323;28;20109;-79
2021/10/30 01:03:32;;;;;;;18.55;11.73;;;;;;;;;;5022485;28;20030;-80
2021/10/30 01:05:59;;;;;;;21.77;12.68;;;;;;;;;;5021260;28;20033;-80
2021/10/30 01:08:25;;;;;;;19.83;12.63;;;;;;;;;;5025926;28;20245;-79
2021/10/30 01:10:51;;;;;;;20.02;12.88;;;;;;;;;;5024195;28;20030;-81
2021/10/30 01:13:17;;;;;;;22.65;13.27;;;;;;;;;;5013687;28;20039;-80
2021/10/30 01:15:43;;;;;;;20.42;12.57;;;;;;;;;;5013677;28;20026;-80
2021/10/30 01:18:09;;;;;;;19.15;12.95;;;;;;;;;;5014574;28;20505;-79
2021/10/30 01:20:35;;;;;;;19.45;12.77;;;;;;;;;;5015213;28;20036;-80
2021/10/30 01:23:02;;;;;;;22.23;12.73;;;;;;;;;;5015101;28;20022;-80
2021/10/30 01:25:28;;;;;;;20.10;13.57;;;;;;;;;;5014382;28;20033;-79
2021/10/30 01:27:55;;;;;;;20.42;12.85;;;;;;;;;;5015160;28;20034;-81
2021/10/30 01:30:22;;;;;;;21.52;13.65;;;;;;;;;;5012405;28;20054;-81
2021/10/30 01:32:52;;;;;;;24.50;13.55;;;;;;;;;;5038110;28;20033;-79
2021/10/30 01:35:27;;;;;;;20.55;12.65;;;6.60;99.90;;;;;;5023657;28;20029;-79
2021/10/30 01:37:55;;;;;;;19.95;13.23;;;6.60;99.90;;;;;;5021228;28;20018;-81
2021/10/30 01:40:21;;;;;;;20.13;13.15;;;6.70;99.90;;;;;;5015102;28;20030;-80
2021/10/30 01:43:14;;;;;;;18.40;11.95;;;6.90;99.90;;;;;;5015660;28;20453;-80
2021/10/30 01:45:42;;;;;;;18.85;13.25;;;6.90;99.90;;;;;;5015064;28;20042;-80
2021/10/30 01:48:08;;;;;;;18.33;12.07;;;7.40;99.90;;;;;;5030593;28;20577;-80
2021/10/30 01:50:35;;;;;;;19.20;12.45;;;6.30;99.90;;;;;;5015702;28;20022;-80
2021/10/30 01:53:03;;;;;;;21.95;14.05;;;6.30;99.90;;;;;;5018743;28;20026;-80
2021/10/30 01:55:33;;;;;;;21.80;13.85;;;6.40;99.90;;;;;;5021002;28;20484;-80
2021/10/30 01:57:59;;;;;;;21.27;13.88;;;6.60;99.90;;;;;;5020659;28;20033;-80
2021/10/30 02:00:25;;;;;;;19.45;12.80;;;6.50;99.90;;;;;;5019073;28;20038;-81
2021/10/30 02:02:51;;;;;;;20.38;13.77;;;6.40;99.90;;;;;;5021616;28;20085;-79
2021/10/30 02:05:17;;;;;;;20.27;13.07;;;6.50;99.90;;;;;;5027720;28;20095;-79
2021/10/30 02:07:43;;;;;;;20.58;13.20;;;7.80;99.90;;;;;;5027900;28;20081;-79
2021/10/30 02:10:12;;;;;;;20.20;12.23;;;6.30;99.90;;;;;;5039301;28;20486;-80
2021/10/30 02:12:38;;;;;;;18.02;12.60;;;8.20;99.90;;;;;;5013001;28;20032;-81
2021/10/30 02:15:05;;;;;;;23.67;13.55;;;6.60;99.90;;;;;;5012782;28;20029;-80
2021/10/30 02:17:32;;;;;;;18.80;13.05;;;6.30;99.90;;;;;;5013045;28;20117;-80
2021/10/30 02:19:58;;;;;;;21.42;13.68;;;7.70;99.90;;;;;;5010858;28;20376;-80
2021/10/30 02:22:24;;;;;;;19.55;12.82;;;6.30;99.90;;;;;;5012500;28;20040;-78
2021/10/30 02:24:50;;;;;;;19.42;13.30;;;7.10;99.90;;;;;;5012138;28;20609;-80
2021/10/30 02:27:16;;;;;;;22.83;13.23;;;6.10;99.90;;;;;;5010908;28;20104;-80
2021/10/30 02:29:42;;;;;;;22.80;13.15;;;6.10;99.90;;;;;;5012081;28;20375;-79
2021/10/30 02:32:08;;;;;;;22.48;13.40;;;6.10;99.90;;;;;;5011190;28;20033;-80
2021/10/30 02:34:33;;;;;;;22.88;14.10;;;5.90;99.90;;;;;;5011447;28;20010;-80
2021/10/30 02:36:59;;;;;;;21.02;14.10;;;5.80;99.90;;;;;;5027902;28;20116;-80
2021/10/30 02:39:25;;;;;;;21.00;14.13;;;5.70;99.90;;;;;;5010635;28;20109;-80
2021/10/30 02:41:50;;;;;;;24.00;14.20;;;5.70;99.90;;;;;;5026633;28;20064;-79
2021/10/30 02:44:16;;;;;;;23.58;14.63;;;5.90;99.90;;;;;;5027104;28;20034;-80
2021/10/30 02:46:42;;;;;;;21.65;14.85;;;5.80;99.90;;;;;;5026100;28;20033;-80
2021/10/30 02:49:07;;;;;;;21.35;14.50;;;6.70;99.90;;;;;;5012006;28;20076;-79
2021/10/30 02:51:33;;;;;;;24.88;15.05;;;5.70;99.90;;;;;;5011199;28;20038;-81
2021/10/30 02:53:59;;;;;;;21.35;14.82;;;6.20;99.90;;;;;;5009440;28;20022;-81
2021/10/30 02:56:24;;;;;;;23.52;14.35;;;5.80;99.90;;;;;;5009277;28;20550;-79
2021/10/30 02:58:50;;;;;;;21.70;14.38;;;5.80;99.90;;;;;;5007452;28;20117;-80
2021/10/30 03:01:15;;;;;;;20.13;14.25;;;6.80;99.90;;;;;;5007251;28;20042;-80
2021/10/30 03:03:41;;;;;;;22.45;13.85;;;5.70;99.90;;;;;;5008487;28;20112;-80
2021/10/30 03:06:08;;;;;;;23.27;14.45;;;5.70;99.90;;;;;;4992297;28;20037;-80
2021/10/30 03:08:34;;;;;;;22.05;14.02;;;5.70;99.90;;;;;;4989462;28;20491;-80
2021/10/30 03:10:59;;;;;;;22.60;13.65;;;5.60;99.90;;;;;;4988326;28;20093;-79
2021/10/30 03:13:25;;;;;;;26.58;14.25;;;5.70;99.90;;;;;;4992762;28;20031;-80
2021/10/30 03:15:51;;;;;;;21.92;14.48;;;5.60;99.90;;;;;;5008805;28;20651;-79
2021/10/30 03:18:17;;;;;;;20.30;13.45;;;5.60;99.90;;;;;;5012283;28;20029;-80
2021/10/30 03:20:43;;;;;;;22.98;13.80;;;5.30;99.90;;;;;;5012454;28;20029;-80
2021/10/30 03:23:08;;;;;;;19.92;13.93;;;5.40;99.90;;;;;;5011138;28;20026;-80
2021/10/30 03:25:34;;;;;;;21.50;15.05;;;5.50;99.90;;;;;;5027051;28;20026;-81
2021/10/30 03:28:01;;;;;;;22.83;13.52;;;5.40;99.90;;;;;;5012756;28;20068;-80
2021/10/30 03:30:26;;;;;;;20.77;14.20;;;6.50;99.90;;;;;;5011638;28;20076;-81
2021/10/30 03:32:52;;;;;;;20.02;13.52;;;5.40;99.90;;;;;;5013190;28;20017;-79
2021/10/30 03:35:18;;;;;;;21.38;14.25;;;5.50;99.90;;;;;;5015026;28;20026;-80
2021/10/30 03:37:43;;;;;;;17.95;13.93;;;6.30;99.90;;;;;;5012190;28;20022;-80
2021/10/30 03:40:11;;;;;;;21.15;13.95;;;5.50;99.90;;;;;;5010270;28;20033;-80
2021/10/30 03:42:37;;;;;;;19.95;13.77;;;5.50;99.90;;;;;;5012049;28;20661;-79
2021/10/30 03:45:04;;;;;;;20.15;14.05;;;5.50;99.90;;;;;;5011739;28;20033;-80
2021/10/30 03:47:30;;;;;;;19.52;13.88;;;5.50;99.90;;;;;;5012352;28;20068;-79
2021/10/30 03:49:56;;;;;;;20.02;12.95;;;5.60;99.90;;;;;;5011021;28;20057;-80
2021/10/30 03:52:21;;;;;;;22.15;13.52;;;5.50;99.90;;;;;;5012086;28;20446;-81
2021/10/30 03:54:47;;;;;;;20.70;12.45;;;5.60;99.90;;;;;;5010416;28;20025;-78
2021/10/30 03:57:13;;;;;;;21.08;14.23;;;;;;;;;;5010732;28;20033;-79
2021/10/30 03:59:39;;;;;;;19.02;12.63;;;;;;;;;;5008253;28;20042;-80
2021/10/30 04:02:05;;;;;;;19.13;12.75;;;;;;;;;;5010097;28;20045;-79
2021/10/30 04:04:33;;;;;;;17.98;12.95;;;;;;;;;;5016443;28;20169;-79
2021/10/30 04:06:59;;;;;;;20.65;13.10;;;;;;;;;;5011951;28;20022;-79
2021/10/30 04:09:25;;;;;;;20.20;13.52;;;;;;;;;;5010450;28;20117;-79
2021/10/30 04:11:51;;;;;;;19.15;12.13;;;;;;;;;;5011045;28;20180;-80
2021/10/30 04:14:17;;;;;;;18.05;12.07;;;;;;;;;;5011599;28;20096;-79
2021/10/30 04:16:43;;;;;;;17.15;12.52;;;;;;;;;;5009917;28;20406;-80
2021/10/30 04:19:10;;;;;;;21.90;14.20;;;;;;;;;;5011362;28;20026;-79
2021/10/30 04:21:36;;;;;;;20.15;12.57;;;;;;;;;;5010642;28;20030;-80
2021/10/30 04:24:02;;;;;;;18.80;12.65;;;;;;;;;;5010797;28;20028;-80
2021/10/30 04:26:29;;;;;;;20.15;12.98;;;;;;;;;;5011751;28;20026;-80
2021/10/30 04:28:55;;;;;;;20.40;12.77;;;;;;;;;;5010588;28;20041;-80
2021/10/30 04:31:26;;;;;;;18.98;12.88;;;;;;;;;;5010344;28;20022;-80
2021/10/30 04:33:54;;;;;;;16.17;12.60;;;7.40;99.90;;;;;;5011454;28;20018;-80
2021/10/30 04:36:23;;;;;;;19.55;12.75;;;5.00;99.90;;;;;;5025655;28;20026;-79
2021/10/30 04:38:49;;;;;;;19.35;12.10;;;5.00;99.90;;;;;;5003761;28;20054;-79
2021/10/30 04:41:18;;;;;;;18.88;12.52;;;5.10;99.90;;;;;;4991040;28;20033;-79
2021/10/30 04:43:44;;;;;;;18.17;12.98;;;5.10;99.90;;;;;;4991648;28;20026;-79
2021/10/30 04:46:10;;;;;;;17.02;12.45;;;4.70;99.90;;;;;;4993411;28;20033;-79
2021/10/30 04:48:36;;;;;;;22.65;14.35;;;4.90;99.90;;;;;;4990172;28;20407;-80
2021/10/30 04:51:03;;;;;;;23.45;13.45;;;4.90;99.90;;;;;;4990399;28;20054;-79
2021/10/30 04:53:31;;;;;;;20.20;13.88;;;5.00;99.90;;;;;;4990994;28;20026;-80
2021/10/30 04:55:56;;;;;;;20.83;13.30;;;4.90;99.90;;;;;;4994973;28;20022;-79
2021/10/30 04:58:22;;;;;;;18.13;13.13;;;4.80;99.90;;;;;;5010372;28;20033;-79
2021/10/30 05:00:48;;;;;;;21.15;13.23;;;6.20;99.90;;;;;;5009715;28;20410;-80
2021/10/30 05:03:13;;;;;;;18.55;12.68;;;4.80;99.90;;;;;;5010382;28;20718;-79
2021/10/30 05:05:39;;;;;;;18.02;13.27;;;5.90;99.90;;;;;;5009817;28;20065;-79
2021/10/30 05:08:04;;;;;;;19.98;13.43;;;4.90;99.90;;;;;;5010600;28;20070;-80
2021/10/30 05:10:30;;;;;;;19.80;12.98;;;4.90;99.90;;;;;;5008857;28;20590;-79
2021/10/30 05:12:56;;;;;;;19.35;13.32;;;4.90;99.90;;;;;;5025302;28;20022;-80
2021/10/30 05:15:21;;;;;;;18.15;12.18;;;5.10;99.90;;;;;;5009910;28;20034;-80
2021/10/30 05:17:47;;;;;;;20.70;13.10;;;5.10;99.90;;;;;;5009975;28;20037;-79
2021/10/30 05:20:12;;;;;;;18.33;13.13;;;4.90;99.90;;;;;;5010024;28;20057;-80
2021/10/30 05:22:38;;;;;;;20.25;13.18;;;7.10;99.90;;;;;;5010001;28;20487;-79
2021/10/30 05:25:04;;;;;;;18.77;12.63;;;4.90;99.90;;;;;;5024608;28;20033;-81
2021/10/30 05:27:30;;;;;;;21.50;13.88;;;4.80;99.90;;;;;;5009165;28;20025;-79
2021/10/30 05:29:55;;;;;;;19.92;14.10;;;4.80;99.90;;;;;;5007691;28;20030;-80
2021/10/30 05:32:21;;;;;;;20.10;13.63;;;4.90;99.90;;;;;;5011399;28;20483;-80
2021/10/30 05:34:49;;;;;;;17.20;12.43;;;4.70;99.90;;;;;;4995601;28;20573;-80
2021/10/30 05:37:14;;;;;;;17.75;13.13;;;5.00;99.90;;;;;;5009635;28;20120;-79
2021/10/30 05:39:40;;;;;;;19.58;13.80;;;4.80;99.90;;;;;;5009339;28;20105;-80
2021/10/30 05:42:10;;;;;;;20.63;14.07;;;4.70;99.90;;;;;;5009694;28;20286;-80
2021/10/30 05:44:37;;;;;;;20.38;13.75;;;4.90;99.90;;;;;;5023744;28;20026;-79
2021/10/30 05:47:04;;;;;;;21.95;14.13;;;4.90;99.90;;;;;;5010114;28;20034;-79
2021/10/30 05:49:30;;;;;;;21.08;13.73;;;4.90;99.90;;;;;;5008975;28;20022;-80
2021/10/30 05:51:56;;;;;;;17.20;12.85;;;4.90;99.90;;;;;;5008222;28;20033;-79
2021/10/30 05:54:21;;;;;;;21.27;14.13;;;5.80;99.90;;;;;;5010945;28;20037;-80
2021/10/30 05:56:47;;;;;;;19.92;13.80;;;6.60;99.90;;;;;;5009106;28;20026;-80
2021/10/30 05:59:12;;;;;;;18.13;12.38;;;5.20;99.90;;;;;;5007883;28;20058;-80
2021/10/30 06:01:39;;;;;;;18.17;12.85;;;5.20;99.90;;;;;;5010874;28;20718;-79
2021/10/30 06:04:05;;;;;;;18.88;13.57;;;5.70;99.90;;;;;;5009254;28;20026;-78
2021/10/30 06:06:30;;;;;;;18.60;12.57;;;5.50;99.90;;;;;;5009729;28;20053;-80
2021/10/30 06:08:56;;;;;;;18.85;11.35;;;5.40;99.90;;;;;;5009214;28;20379;-79
2021/10/30 06:11:21;;;;;;;15.75;11.43;;;5.30;99.90;;;;;;5008745;28;20026;-80
2021/10/30 06:13:48;;;;;;;19.08;11.93;;;6.70;99.90;;;;;;5010054;28;20037;-79
2021/10/30 06:16:13;;;;;;;18.02;11.30;;;5.40;99.90;;;;;;5009014;28;20046;-80
2021/10/30 06:18:39;;;;;;;14.63;11.32;;;6.60;99.90;;;;;;5009452;28;20068;-81
2021/10/30 06:21:05;;;;;;;15.40;11.35;;;5.40;99.90;;;;;;5008812;28;20030;-81
2021/10/30 06:23:30;;;;;;;15.68;10.93;;;5.40;99.90;;;;;;5009324;28;20037;-80
2021/10/30 06:25:56;;;;;;;16.23;11.60;;;5.30;99.90;;;;;;5009578;28;20038;-80
2021/10/30 06:28:22;;;;;;;14.90;11.65;;;5.40;99.90;;;;;;5011817;28;20021;-80
2021/10/30 06:30:47;;;;;;;14.70;10.70;;;5.50;99.90;;;;;;4999649;28;20493;-81
2021/10/30 06:33:13;;;;;;;16.13;11.02;;;5.40;99.90;;;;;;5023718;28;20415;-79
2021/10/30 06:35:39;;;;;;;14.73;10.20;;;5.60;99.90;;;;;;5009536;28;20053;-79
2021/10/30 06:38:04;;;;;;;14.25;10.18;;;5.60;99.90;;;;;;4997340;28;20027;-80
2021/10/30 06:40:30;;;;;;;16.45;11.00;;;5.50;99.90;;;;;;5004181;28;20538;-79
2021/10/30 06:42:56;;;;;;;15.40;10.57;;;6.00;99.90;;;;;;5008909;28;20391;-81
2021/10/30 06:45:22;;;;;;;15.68;10.77;;;5.70;99.90;;;;;;5009872;28;20010;-80
2021/10/30 06:47:48;;;;;;;13.63;9.60;;;5.60;99.90;;;;;;5026767;28;20037;-81
2021/10/30 06:50:22;;;;;;;17.08;10.07;;;5.60;99.90;;;;;;5013360;28;20041;-81
2021/10/30 06:52:53;;;;;;;13.45;9.75;;;5.60;99.90;;;;;;5028799;28;20029;-81
2021/10/30 06:55:20;;;;;;;15.18;9.93;;;5.50;99.90;;;;;;5028486;28;20120;-81
2021/10/30 06:57:47;;;;;;;12.48;10.00;;;5.80;99.90;;;;;;5012920;28;20096;-80
2021/10/30 07:00:13;;;;;;;13.15;9.77;;;5.80;99.90;;;;;;5007611;28;20035;-81
2021/10/30 07:02:40;;;;;;;17.45;10.93;;;5.80;99.90;;;;;;4994157;28;20034;-83
2021/10/30 07:05:07;;;;;;;15.20;9.25;;;5.90;99.90;;;;;;5003312;28;20447;-79
2021/10/30 07:07:33;;;;;;;14.60;10.05;;;6.10;99.90;;;;;;5013396;28;20058;-82
2021/10/30 07:09:59;;;;;;;12.90;9.40;;;6.00;99.90;;;;;;5012487;28;20065;-80
2021/10/30 07:12:30;;;;;;;13.40;9.45;;;6.10;99.90;;;;;;5018139;28;20447;-81
2021/10/30 07:14:57;;;;;;;13.93;9.82;;;6.10;99.90;;;;;;4999390;28;20658;-82
2021/10/30 07:17:23;;;;;;;16.92;10.25;;;6.30;99.90;;;;;;5012630;28;20678;-82
2021/10/30 07:19:50;;;;;;;11.35;8.68;;;6.30;99.90;;;;;;5024870;28;20056;-83
2021/10/30 07:22:15;;;;;;;12.60;8.70;;;6.90;99.90;;;;;;5033339;28;20048;-85
2021/10/30 07:24:43;;;;;;;14.15;9.10;;;6.90;99.90;;;;;;5027313;28;20538;-82
2021/10/30 07:27:09;;;;;;;11.40;8.35;;;6.40;99.90;;;;;;5028150;28;20029;-83
2021/10/30 07:29:35;;;;;;;12.13;8.43;;;6.50;99.90;;;;;;5012787;28;20018;-82
2021/10/30 07:32:01;;;;;;;13.40;8.85;;;6.50;99.90;;;;;;4993306;28;20538;-80
2021/10/30 07:34:26;;;;;;;12.18;8.65;;;6.60;99.90;;;;;;5002276;28;20026;-82
2021/10/30 07:36:52;;;;;;;12.05;8.45;;;6.70;99.90;;;;;;5011129;28;20498;-82
2021/10/30 07:39:17;;;;;;;10.48;8.43;;;7.60;99.90;;;;;;5011792;28;20053;-81
2021/10/30 07:41:43;;;;;;;13.55;7.85;;;6.80;99.90;;;;;;5010621;28;20038;-80
2021/10/30 07:44:10;;;;;;;10.20;7.35;;;6.90;99.90;;;;;;5012101;28;20029;-81
2021/10/30 07:46:36;;;;;;;10.68;7.97;;;7.00;99.90;;;;;;5009033;28;20061;-80
2021/10/30 07:49:02;;;;;;;11.15;8.20;;;7.10;99.90;;;;;;5024670;28;20559;-78
2021/10/30 07:51:28;;;;;;;10.32;7.72;;;7.10;99.90;;;;;;5009623;28;20029;-81
2021/10/30 07:53:54;;;;;;;11.65;8.30;;;7.20;99.90;;;;;;5011581;28;20672;-80
2021/10/30 07:56:20;;;;;;;12.43;8.43;;;7.90;99.90;;;;;;5010074;28;20029;-78
2021/10/30 07:58:46;;;;;;;11.98;8.65;;;7.30;99.90;;;;;;5025505;28;20124;-80
2021/10/30 08:01:12;;;;;;;11.20;8.32;;;8.00;99.90;;;;;;5010831;28;20038;-78
2021/10/30 08:03:38;;;;;;;13.07;9.20;;;7.30;99.90;;;;;;5011211;28;20057;-81
2021/10/30 08:06:03;;;;;;;11.30;8.77;;;7.30;99.90;;;;;;5011732;28;20403;-82
2021/10/30 08:08:30;;;;;;;11.45;8.75;;;7.50;99.90;;;;;;5011487;28;20033;-80
2021/10/30 08:10:56;;;;;;;14.82;8.75;;;7.50;99.90;;;;;;5010021;28;20100;-79
2021/10/30 08:13:21;;;;;;;9.77;7.68;;;7.60;99.90;;;;;;5027234;28;20112;-80
2021/10/30 08:15:47;;;;;;;14.50;8.60;;;7.50;99.90;;;;;;5011539;28;20052;-80
2021/10/30 08:18:13;;;;;;;11.90;8.77;;;7.50;99.90;;;;;;5031596;28;20030;-81
2021/10/30 08:20:38;;;;;;;14.88;8.75;;;7.80;99.90;;;;;;5020606;28;20507;-84
2021/10/30 08:23:04;;;;;;;12.45;9.05;;;8.10;99.90;;;;;;5015649;28;20038;-82
2021/10/30 08:25:30;;;;;;;13.13;9.05;;;6.70;99.90;;;;;;5021245;28;20510;-87
2021/10/30 08:27:55;;;;;;;13.73;9.13;;;6.60;99.90;;;;;;5030624;28;20026;-84
2021/10/30 08:30:21;;;;;;;16.13;10.35;;;7.00;99.90;;;;;;5011595;28;20030;-79
2021/10/30 08:32:47;;;;;;;13.30;10.55;;;6.30;99.90;;;;;;5010713;28;20017;-79
2021/10/30 08:35:12;;;;;;;15.60;10.77;;;6.20;99.90;;;;;;5009894;28;20446;-79
2021/10/30 08:37:39;;;;;;;14.55;10.55;;;6.20;99.90;;;;;;5009795;28;20121;-79
2021/10/30 08:40:10;;;;;;;21.40;13.60;;;6.00;99.90;;;;;;5009514;28;20445;-79
2021/10/30 08:42:37;;;;;;;18.65;11.65;;;6.10;99.90;;;;;;5005232;28;20030;-80
2021/10/30 08:45:06;;;;;;;16.13;11.68;;;6.50;99.90;;;;;;5007994;28;20030;-82
2021/10/30 08:47:32;;;;;;;13.65;10.98;;;6.00;99.90;;;;;;5009078;28;20407;-80
2021/10/30 08:49:59;;;;;;;15.82;11.48;;;6.10;99.90;;;;;;5008780;28;20037;-79
2021/10/30 08:52:25;;;;;;;14.55;11.18;;;6.10;99.90;;;;;;5008407;28;20560;-78
2021/10/30 08:54:50;;;;;;;16.45;12.52;;;8.30;99.90;;;;;;5010060;28;20038;-79
2021/10/30 08:57:16;;;;;;;19.23;12.70;;;6.30;99.90;;;;;;5008019;28;20367;-80
2021/10/30 08:59:46;;;;;;;15.88;11.75;;;6.30;99.90;;;;;;5009362;28;20059;-80
2021/10/30 09:02:31;;;;;;;13.07;10.57;;;6.90;99.90;;;;;;5001584;28;20030;-78
2021/10/30 09:05:22;;;;;;;15.75;11.98;;;6.40;99.90;;;;;;5010660;28;20026;-81
2021/10/30 09:07:52;;;;;;;17.58;12.13;;;6.50;99.90;;;;;;5013738;28;20033;-79
2021/10/30 09:10:27;;;;;;;17.70;12.32;;;6.60;99.90;;;;;;5007331;28;20037;-81
2021/10/30 09:12:54;;;;;;;16.02;12.25;;;6.50;99.90;;;;;;5009761;28;20026;-80
2021/10/30 09:15:30;;;;;;;17.77;11.43;;;6.50;99.90;;;;;;5009741;28;20026;-80
2021/10/30 09:17:56;;;;;;;18.08;11.68;;;8.00;99.90;;;;;;4992762;28;20022;-79
2021/10/30 09:20:38;;;;;;;15.13;12.05;;;6.40;99.90;;;;;;5007992;28;20022;-79
2021/10/30 09:23:10;;;;;;;16.10;11.90;;;6.60;99.90;;;;;;5009212;28;20029;-79
2021/10/30 09:26:09;;;;;;;16.63;12.32;;;6.50;99.90;;;;;;5024256;28;20502;-78
2021/10/30 09:28:41;;;;;;;14.45;11.25;;;6.70;99.90;;;;;;5009963;28;20077;-80
2021/10/30 09:31:09;;;;;;;14.50;11.17;;;7.00;99.90;;;;;;5009360;28;20022;-80
2021/10/30 09:33:48;;;;;;;16.10;11.18;;;6.70;99.90;;;;;;5009698;28;20446;-80
2021/10/30 09:36:14;;;;;;;19.92;12.35;;;6.60;99.90;;;;;;5009870;28;20030;-81
2021/10/30 09:38:42;;;;;;;17.33;13.15;;;6.60;99.90;;;;;;5010696;28;20030;-81
2021/10/30 09:41:24;;;;;;;15.43;11.18;;;7.40;99.90;;;;;;5007916;28;20105;-79
2021/10/30 09:44:02;;;;;;;15.10;10.55;;;6.60;99.90;;;;;;5010283;28;20045;-80
2021/10/30 09:46:33;;;;;;;15.40;11.13;;;7.50;99.90;;;;;;5009916;28;20684;-81
2021/10/30 09:49:11;;;;;;;14.23;10.57;;;;;;;;;;5009504;28;20024;-80
2021/10/30 09:51:38;;;;;;;17.50;10.77;;;;;;;;;;5010577;28;20022;-80
2021/10/30 09:54:05;;;;;;;18.90;11.48;;;;;;;;;;5018418;28;20092;-79
2021/10/30 09:56:42;;;;;;;15.52;11.05;;;;;;;;;;5018178;28;20417;-79
2021/10/30 09:59:09;;;;;;;14.50;11.88;;;;;;;;;;5020384;28;20052;-80
2021/10/30 10:01:36;;;;;;;13.95;11.50;;;;;;;;;;5021490;28;20081;-80
2021/10/30 10:04:02;;;;;;;16.40;10.70;;;6.90;99.90;;;;;;5020956;28;20049;-80
2021/10/30 10:06:31;;;;;;;14.60;9.68;;;7.20;99.90;;;;;;5018510;28;20513;-78
2021/10/30 10:08:57;;;;;;;11.98;9.43;;;7.30;99.90;;;;;;5016974;28;20033;-81
2021/10/30 10:11:24;;;;;;;12.38;9.98;;;7.70;99.90;;;;;;5036359;28;20066;-81
2021/10/30 10:13:51;;;;;;;15.80;10.35;;;7.80;99.90;;;;;;5027823;28;20466;-78
2021/10/30 10:16:19;;;;;;;15.02;10.38;;;7.50;99.90;;;;;;5014949;28;20022;-80
2021/10/30 10:18:49;;;;;;;15.07;10.50;;;7.40;99.90;;;;;;5020289;28;20053;-82
2021/10/30 10:21:19;;;;;;;15.15;11.13;;;7.30;99.90;;;;;;5020832;28;20029;-81
2021/10/30 10:23:45;;;;;;;15.10;11.02;;;8.00;99.90;;;;;;5021680;28;20060;-81
2021/10/30 10:26:12;;;;;;;14.55;11.18;;;7.50;99.90;;;;;;5020105;28;20030;-82
2021/10/30 10:28:39;;;;;;;16.35;11.88;;;8.30;99.90;;;;;;5011038;28;20555;-81
2021/10/30 10:31:20;;;;;;;16.40;11.00;;;5.50;99.90;;;;;;5013576;28;20038;-83
2021/10/30 10:34:08;;;;;;;17.88;12.27;;;7.40;99.90;;;;;;5013468;28;20030;-84
2021/10/30 10:36:37;;;;;;;15.40;11.05;;;8.80;99.90;;;;;;5013256;28;20501;-84
2021/10/30 10:39:02;;;;;;;18.48;13.07;;;7.50;99.90;;;;;;5019154;28;20018;-85
2021/10/30 10:41:37;;;;;;;16.30;11.77;;;8.90;99.90;;;;;;5015238;28;20037;-84
2021/10/30 10:44:47;;;;;;;17.05;12.40;;;7.50;99.90;;;;;;5014496;28;20116;-82
2021/10/30 10:47:34;;;;;;;18.88;13.73;;;6.90;99.90;;;;;;5025537;28;20033;-84
2021/10/30 10:50:14;;;;;;;18.33;13.10;;;6.70;99.90;;;;;;5032418;28;20093;-82
2021/10/30 10:53:05;;;;;;;22.10;15.93;;;6.70;99.90;;;;;;5043256;28;20021;-85
2021/10/30 10:55:37;;;;;;;21.08;16.15;;;7.60;99.90;;;;;;5015336;28;20097;-81
2021/10/30 10:58:05;;;;;;;24.08;16.73;;;6.90;99.90;;;;;;5015230;28;20039;-82
2021/10/30 11:00:32;;;;;;;26.48;18.10;;;6.60;99.90;;;;;;5005768;28;20045;-85
2021/10/30 11:02:59;;;;;;;24.33;16.50;;;6.50;99.90;;;;;;5001817;28;20030;-86
2021/10/30 11:05:29;;;;;;;35.17;22.25;;;6.70;99.90;;;;;;5010136;28;20030;-86
2021/10/30 11:07:54;;;;;;;26.10;18.10;;;6.80;99.90;;;;;;5023901;28;20029;-86
2021/10/30 11:10:27;;;;;;;23.35;16.83;;;8.40;99.90;;;;;;5009051;28;20403;-85
2021/10/30 11:12:59;;;;;;;26.58;17.33;;;7.80;99.90;;;;;;5027370;28;20026;-84
2021/10/30 11:15:52;;;;;;;24.15;17.17;;;7.80;99.90;;;;;;5014849;28;20528;-85
2021/10/30 11:18:30;;;;;;;25.13;17.52;;;6.90;99.90;;;;;;5033300;28;20045;-85
2021/10/30 11:21:17;;;;;;;25.33;16.33;;;8.60;99.90;;;;;;5050491;28;20010;-84
2021/10/30 11:24:09;;;;;;;27.58;17.38;;;7.00;99.90;;;;;;5030844;28;20014;-85
2021/10/30 11:26:35;;;;;;;21.35;16.10;;;7.10;99.90;;;;;;4999040;28;20081;-85
2021/10/30 11:29:08;;;;;;;22.77;14.80;;;8.80;99.90;;;;;;4992110;28;20062;-85
2021/10/30 11:31:34;;;;;;;21.27;15.10;;;7.30;99.90;;;;;;4992794;28;20045;-86
2021/10/30 11:34:09;;;;;;;19.38;14.40;;;7.40;99.90;;;;;;4999851;28;20031;-83
2021/10/30 11:36:42;;;;;;;17.38;13.63;;;7.50;99.90;;;;;;5013833;28;20117;-84
2021/10/30 11:39:11;;;;;;;18.50;13.63;;;9.20;99.90;;;;;;5016398;28;20491;-85
2021/10/30 11:41:39;;;;;;;20.17;13.60;;;7.70;99.90;;;;;;4999370;28;20039;-84
2021/10/30 11:44:07;;;;;;;16.58;13.48;;;7.60;99.90;;;;;;4998806;28;20027;-84
2021/10/30 11:46:53;;;;;;;15.52;12.23;;;7.70;99.90;;;;;;5029834;28;20030;-85
2021/10/30 11:49:22;;;;;;;18.67;13.02;;;8.20;99.90;;;;;;5011245;28;20482;-85
2021/10/30 11:51:48;;;;;;;20.35;13.45;;;8.40;99.90;;;;;;5013165;28;20022;-85
2021/10/30 11:54:14;;;;;;;18.13;12.65;;;7.50;99.90;;;;;;4995431;28;20030;-86
2021/10/30 11:56:41;;;;;;;19.52;13.60;;;8.60;99.90;;;;;;5012344;28;20097;-85
2021/10/30 11:59:09;;;;;;;18.73;13.38;;;9.10;99.90;;;;;;4995895;28;20029;-85
2021/10/30 12:01:39;;;;;;;18.45;12.85;;;7.80;99.90;;;;;;4995362;28;20041;-85
2021/10/30 12:04:17;;;;;;;17.98;13.18;;;9.60;99.90;;;;;;5028786;28;20042;-86
2021/10/30 12:06:53;;;;;;;19.13;14.57;;;7.60;99.90;;;;;;5008550;28;20037;-86
2021/10/30 12:09:21;;;;;;;20.80;14.70;;;8.80;99.90;;;;;;4993825;28;20030;-85
2021/10/30 12:11:49;;;;;;;21.55;14.55;;;7.30;99.90;;;;;;5001337;28;20022;-85
2021/10/30 12:14:41;;;;;;;23.10;16.20;;;7.30;99.90;;;;;;5030226;28;20014;-86
2021/10/30 12:17:13;;;;;;;21.77;15.60;;;7.10;99.90;;;;;;5013406;28;20077;-85
2021/10/30 12:19:44;;;;;;;20.45;15.55;;;7.40;99.90;;;;;;5014305;28;20033;-85
2021/10/30 12:22:25;;;;;;;22.23;16.27;;;7.40;99.90;;;;;;5030938;28;20030;-86
2021/10/30 12:25:05;;;;;;;23.70;18.27;;;8.70;99.90;;;;;;5017979;28;20026;-84
2021/10/30 12:27:52;;;;;;;21.38;15.35;;;7.50;99.90;;;;;;5019706;28;20057;-85
2021/10/30 12:30:26;;;;;;;22.25;15.93;;;7.70;99.90;;;;;;5016797;28;20034;-86
2021/10/30 12:32:53;;;;;;;23.60;17.05;;;7.30;99.90;;;;;;5032382;28;20134;-85
2021/10/30 12:35:23;;;;;;;21.88;16.17;;;7.50;99.90;;;;;;5016690;28;20029;-85
2021/10/30 12:37:49;;;;;;;21.17;14.85;;;7.40;99.90;;;;;;4999405;28;20023;-85
2021/10/30 12:40:16;;;;;;;21.75;16.88;;;7.80;99.90;;;;;;5010487;28;20033;-83
2021/10/30 12:42:42;;;;;;;21.67;17.08;;;7.90;99.90;;;;;;5014725;28;20030;-83
2021/10/30 12:45:09;;;;;;;23.15;16.33;;;7.40;99.90;;;;;;5027825;28;20026;-84
2021/10/30 12:47:35;;;;;;;21.98;16.90;;;7.50;99.90;;;;;;5027166;28;20050;-84
2021/10/30 12:50:08;;;;;;;24.20;15.05;;;8.40;99.90;;;;;;5029785;28;20050;-84
2021/10/30 12:52:45;;;;;;;21.90;16.60;;;7.60;99.90;;;;;;5015499;28;20104;-84
2021/10/30 12:55:16;;;;;;;22.88;17.02;;;7.60;99.90;;;;;;5014387;28;20032;-84
2021/10/30 12:57:53;;;;;;;23.98;17.23;;;7.60;99.90;;;;;;5007992;28;20027;-83
2021/10/30 13:00:18;;;;;;;21.15;17.23;;;7.60;99.90;;;;;;5009404;28;20084;-84
2021/10/30 13:02:44;;;;;;;23.02;17.20;;;7.90;99.90;;;;;;5043951;28;20069;-85